sensor_id;sensor_type;location;lat;lon;timestamp;pressure;altitude;pressure_sealevel;temperature;humidity
66486;BME280;53303;47.476;8.084;2023-07-13T00:02:23;95416.66;;;25.32;51.37
66486;BME280;53303;47.476;8.084;2023-07-13T00:04:49;95399.28;;;25.25;50.98
66486;BME280;53303;47.476;8.084;2023-07-13T00:07:15;95415.16;;;25.31;51.00
66486;BME280;53303;47.476;8.084;2023-07-13T00:09:45;95403.03;;;25.28;51.19
66486;BME280;53303;47.476;8.084;2023-07-13T00:12:41;95406.91;;;25.25;51.00
66486;BME280;53303;47.476;8.084;2023-07-13T00:15:19;95410.88;;;25.30;51.02
66486;BME280;53303;47.476;8.084;2023-07-13T00:17:55;95398.19;;;25.29;51.00
66486;BME280;53303;47.476;8.084;2023-07-13T00:20:24;95400.47;;;25.30;51.02
66486;BME280;53303;47.476;8.084;2023-07-13T00:22:54;95398.00;;;25.26;51.34
66486;BME280;53303;47.476;8.084;2023-07-13T00:25:22;95377.91;;;24.94;51.73
66486;BME280;53303;47.476;8.084;2023-07-13T00:27:49;95412.50;;;25.25;51.51
66486;BME280;53303;47.476;8.084;2023-07-13T00:30:18;95405.06;;;25.27;50.84
66486;BME280;53303;47.476;8.084;2023-07-13T00:32:43;95393.81;;;25.20;51.21
66486;BME280;53303;47.476;8.084;2023-07-13T00:35:13;95401.53;;;25.27;51.01
66486;BME280;53303;47.476;8.084;2023-07-13T00:37:38;95400.13;;;25.20;51.27
66486;BME280;53303;47.476;8.084;2023-07-13T00:40:04;95407.13;;;25.27;51.21
66486;BME280;53303;47.476;8.084;2023-07-13T00:42:32;95390.81;;;25.18;51.02
66486;BME280;53303;47.476;8.084;2023-07-13T00:47:53;95399.38;;;25.20;51.07
66486;BME280;53303;47.476;8.084;2023-07-13T00:50:21;95407.22;;;25.21;51.29
66486;BME280;53303;47.476;8.084;2023-07-13T00:52:50;95420.34;;;25.26;51.21
66486;BME280;53303;47.476;8.084;2023-07-13T00:55:21;95417.84;;;25.23;51.14
66486;BME280;53303;47.476;8.084;2023-07-13T00:57:49;95428.72;;;25.26;51.07
66486;BME280;53303;47.476;8.084;2023-07-13T01:00:14;95423.66;;;25.25;50.93
66486;BME280;53303;47.476;8.084;2023-07-13T01:02:47;95417.56;;;25.26;50.83
66486;BME280;53303;47.476;8.084;2023-07-13T01:05:17;95421.63;;;25.25;50.89
66486;BME280;53303;47.476;8.084;2023-07-13T01:07:44;95425.72;;;25.24;51.08
66486;BME280;53303;47.476;8.084;2023-07-13T01:10:15;95421.94;;;25.22;51.24
66486;BME280;53303;47.476;8.084;2023-07-13T01:12:41;95426.78;;;25.21;51.20
66486;BME280;53303;47.476;8.084;2023-07-13T01:15:44;95435.88;;;25.22;51.04
66486;BME280;53303;47.476;8.084;2023-07-13T01:18:14;95410.16;;;25.16;50.73
66486;BME280;53303;47.476;8.084;2023-07-13T01:21:02;95424.94;;;25.24;50.81
66486;BME280;53303;47.476;8.084;2023-07-13T01:23:31;95427.72;;;25.24;50.96
66486;BME280;53303;47.476;8.084;2023-07-13T01:25:58;95432.06;;;25.25;51.22
66486;BME280;53303;47.476;8.084;2023-07-13T01:28:25;95416.69;;;25.18;50.82
66486;BME280;53303;47.476;8.084;2023-07-13T01:30:54;95424.94;;;25.24;50.99
66486;BME280;53303;47.476;8.084;2023-07-13T01:33:20;95423.44;;;25.23;50.99
66486;BME280;53303;47.476;8.084;2023-07-13T01:35:46;95419.91;;;25.22;51.17
66486;BME280;53303;47.476;8.084;2023-07-13T01:38:14;95417.44;;;25.19;50.82
66486;BME280;53303;47.476;8.084;2023-07-13T01:40:40;95418.94;;;25.20;51.03
66486;BME280;53303;47.476;8.084;2023-07-13T01:43:06;95422.81;;;25.17;50.98
66486;BME280;53303;47.476;8.084;2023-07-13T01:45:32;95419.06;;;25.14;50.98
66486;BME280;53303;47.476;8.084;2023-07-13T01:48:00;95427.09;;;25.18;50.77
66486;BME280;53303;47.476;8.084;2023-07-13T01:50:26;95425.81;;;25.19;50.72
66486;BME280;53303;47.476;8.084;2023-07-13T01:52:51;95426.56;;;25.19;50.69
66486;BME280;53303;47.476;8.084;2023-07-13T01:55:20;95420.00;;;25.17;50.97
66486;BME280;53303;47.476;8.084;2023-07-13T01:57:45;95409.94;;;25.14;50.81
66486;BME280;53303;47.476;8.084;2023-07-13T02:00:13;95410.75;;;25.22;50.87
66486;BME280;53303;47.476;8.084;2023-07-13T02:02:40;95406.47;;;25.21;50.80
66486;BME280;53303;47.476;8.084;2023-07-13T02:05:06;95402.53;;;25.16;50.61
66486;BME280;53303;47.476;8.084;2023-07-13T02:07:34;95404.78;;;25.18;50.90
66486;BME280;53303;47.476;8.084;2023-07-13T02:10:00;95403.50;;;25.19;50.95
66486;BME280;53303;47.476;8.084;2023-07-13T02:12:27;95390.22;;;25.12;50.76
66486;BME280;53303;47.476;8.084;2023-07-13T02:14:55;95396.59;;;25.20;51.01
66486;BME280;53303;47.476;8.084;2023-07-13T02:17:26;95381.59;;;25.09;50.80
66486;BME280;53303;47.476;8.084;2023-07-13T02:19:54;95381.72;;;25.04;50.93
66486;BME280;53303;47.476;8.084;2023-07-13T02:22:22;95399.19;;;25.18;51.22
66486;BME280;53303;47.476;8.084;2023-07-13T02:24:48;95399.94;;;25.18;50.82
66486;BME280;53303;47.476;8.084;2023-07-13T02:27:14;95392.88;;;25.17;51.29
66486;BME280;53303;47.476;8.084;2023-07-13T02:29:42;95389.09;;;25.15;50.87
66486;BME280;53303;47.476;8.084;2023-07-13T02:32:08;95394.69;;;25.15;50.65
66486;BME280;53303;47.476;8.084;2023-07-13T02:34:33;95381.94;;;25.06;51.05
66486;BME280;53303;47.476;8.084;2023-07-13T02:37:05;95406.28;;;25.19;50.81
66486;BME280;53303;47.476;8.084;2023-07-13T02:39:30;95397.69;;;25.17;51.12
66486;BME280;53303;47.476;8.084;2023-07-13T02:41:58;95391.34;;;25.16;51.00
66486;BME280;53303;47.476;8.084;2023-07-13T02:44:28;95399.53;;;25.14;50.83
66486;BME280;53303;47.476;8.084;2023-07-13T02:46:54;95398.44;;;25.17;51.22
66486;BME280;53303;47.476;8.084;2023-07-13T02:49:19;95396.53;;;25.12;51.28
66486;BME280;53303;47.476;8.084;2023-07-13T02:51:44;95387.94;;;25.10;51.18
66486;BME280;53303;47.476;8.084;2023-07-13T02:54:12;95396.19;;;25.16;51.10
66486;BME280;53303;47.476;8.084;2023-07-13T02:56:43;95367.69;;;24.96;51.01
66486;BME280;53303;47.476;8.084;2023-07-13T02:59:09;95394.69;;;25.15;50.87
66486;BME280;53303;47.476;8.084;2023-07-13T03:01:35;95391.69;;;25.13;50.99
66486;BME280;53303;47.476;8.084;2023-07-13T03:04:01;95390.41;;;25.14;50.82
66486;BME280;53303;47.476;8.084;2023-07-13T03:06:29;95384.72;;;25.06;50.71
66486;BME280;53303;47.476;8.084;2023-07-13T03:08:55;95401.78;;;25.16;51.05
66486;BME280;53303;47.476;8.084;2023-07-13T03:11:21;95394.63;;;25.07;50.95
66486;BME280;53303;47.476;8.084;2023-07-13T03:13:50;95404.91;;;25.12;50.62
66486;BME280;53303;47.476;8.084;2023-07-13T03:16:17;95402.84;;;25.13;51.03
66486;BME280;53303;47.476;8.084;2023-07-13T03:18:43;95403.06;;;25.15;50.93
66486;BME280;53303;47.476;8.084;2023-07-13T03:21:11;95412.94;;;25.16;50.78
66486;BME280;53303;47.476;8.084;2023-07-13T03:23:36;95407.16;;;25.14;50.82
66486;BME280;53303;47.476;8.084;2023-07-13T03:26:10;95396.66;;;25.06;50.52
66486;BME280;53303;47.476;8.084;2023-07-13T03:28:36;95405.56;;;25.05;50.78
66486;BME280;53303;47.476;8.084;2023-07-13T03:31:07;95405.78;;;25.07;50.64
66486;BME280;53303;47.476;8.084;2023-07-13T03:33:33;95411.56;;;25.09;50.72
66486;BME280;53303;47.476;8.084;2023-07-13T03:35:59;95398.47;;;25.04;50.75
66486;BME280;53303;47.476;8.084;2023-07-13T03:38:25;95396.88;;;25.08;50.48
66486;BME280;53303;47.476;8.084;2023-07-13T03:40:55;95403.59;;;25.13;50.36
66486;BME280;53303;47.476;8.084;2023-07-13T03:43:23;95390.09;;;25.04;50.58
66486;BME280;53303;47.476;8.084;2023-07-13T03:45:48;95407.16;;;25.14;50.18
66486;BME280;53303;47.476;8.084;2023-07-13T03:48:14;95405.97;;;25.09;50.12
66486;BME280;53303;47.476;8.084;2023-07-13T03:50:40;95399.78;;;25.03;50.16
66486;BME280;53303;47.476;8.084;2023-07-13T03:53:05;95407.59;;;25.04;50.24
66486;BME280;53303;47.476;8.084;2023-07-13T03:55:33;95403.53;;;25.05;50.79
66486;BME280;53303;47.476;8.084;2023-07-13T04:00:49;95403.53;;;25.05;50.64
66486;BME280;53303;47.476;8.084;2023-07-13T04:03:17;95411.56;;;25.09;50.54
66486;BME280;53303;47.476;8.084;2023-07-13T04:05:43;95403.19;;;25.09;50.02
66486;BME280;53303;47.476;8.084;2023-07-13T04:08:11;95416.63;;;25.11;49.29
66486;BME280;53303;47.476;8.084;2023-07-13T04:10:36;95397.88;;;24.98;48.34
66486;BME280;53303;47.476;8.084;2023-07-13T04:13:04;95411.69;;;25.03;48.03
66486;BME280;53303;47.476;8.084;2023-07-13T04:15:31;95395.22;;;24.92;47.91
66486;BME280;53303;47.476;8.084;2023-07-13T04:17:56;95405.94;;;24.88;47.74
66486;BME280;53303;47.476;8.084;2023-07-13T04:20:25;95427.06;;;24.97;47.63
66486;BME280;53303;47.476;8.084;2023-07-13T04:22:55;95421.59;;;24.91;47.54
66486;BME280;53303;47.476;8.084;2023-07-13T04:25:21;95424.19;;;24.89;47.71
66486;BME280;53303;47.476;8.084;2023-07-13T04:27:46;95428.59;;;24.84;47.77
66486;BME280;53303;47.476;8.084;2023-07-13T04:30:14;95412.84;;;24.74;47.94
66486;BME280;53303;47.476;8.084;2023-07-13T04:32:42;95424.75;;;24.74;48.07
66486;BME280;53303;47.476;8.084;2023-07-13T04:35:08;95431.41;;;24.71;48.13
66486;BME280;53303;47.476;8.084;2023-07-13T04:37:36;95435.28;;;24.68;48.14
66486;BME280;53303;47.476;8.084;2023-07-13T04:40:04;95438.59;;;24.66;48.52
66486;BME280;53303;47.476;8.084;2023-07-13T04:42:36;95457.28;;;24.72;48.32
66486;BME280;53303;47.476;8.084;2023-07-13T04:45:05;95456.31;;;24.69;48.38
66486;BME280;53303;47.476;8.084;2023-07-13T04:47:31;95452.88;;;24.63;48.50
66486;BME280;53303;47.476;8.084;2023-07-13T04:50:01;95464.56;;;24.61;48.77
66486;BME280;53303;47.476;8.084;2023-07-13T04:52:29;95449.44;;;24.43;48.62
66486;BME280;53303;47.476;8.084;2023-07-13T04:54:56;95467.69;;;24.58;48.47
66486;BME280;53303;47.476;8.084;2023-07-13T04:57:22;95466.00;;;24.55;48.80
66486;BME280;53303;47.476;8.084;2023-07-13T04:59:50;95468.78;;;24.55;49.25
66486;BME280;53303;47.476;8.084;2023-07-13T05:02:18;95469.06;;;24.51;49.54
66486;BME280;53303;47.476;8.084;2023-07-13T05:04:47;95458.13;;;24.40;49.41
66486;BME280;53303;47.476;8.084;2023-07-13T05:07:12;95475.19;;;24.49;49.62
66486;BME280;53303;47.476;8.084;2023-07-13T05:09:38;95477.09;;;24.41;49.71
66486;BME280;53303;47.476;8.084;2023-07-13T05:12:06;95478.38;;;24.40;49.91
66486;BME280;53303;47.476;8.084;2023-07-13T05:14:33;95477.84;;;24.42;49.96
66486;BME280;53303;47.476;8.084;2023-07-13T05:16:59;95481.94;;;24.41;49.63
66486;BME280;53303;47.476;8.084;2023-07-13T05:19:29;95464.34;;;24.32;50.03
66486;BME280;53303;47.476;8.084;2023-07-13T05:21:55;95468.75;;;24.28;50.19
66486;BME280;53303;47.476;8.084;2023-07-13T05:24:22;95489.66;;;24.35;50.69
66486;BME280;53303;47.476;8.084;2023-07-13T05:26:50;95479.78;;;24.33;50.76
66486;BME280;53303;47.476;8.084;2023-07-13T05:29:18;95477.13;;;24.28;50.52
66486;BME280;53303;47.476;8.084;2023-07-13T05:31:43;95473.44;;;24.20;50.83
66486;BME280;53303;47.476;8.084;2023-07-13T05:34:11;95499.31;;;24.33;50.92
66486;BME280;53303;47.476;8.084;2023-07-13T05:36:36;95500.38;;;24.30;51.08
66486;BME280;53303;47.476;8.084;2023-07-13T05:39:03;95511.22;;;24.34;51.02
66486;BME280;53303;47.476;8.084;2023-07-13T05:41:28;95508.22;;;24.32;51.05
66486;BME280;53303;47.476;8.084;2023-07-13T05:43:56;95507.00;;;24.27;50.85
66486;BME280;53303;47.476;8.084;2023-07-13T05:46:24;95500.25;;;24.23;50.78
66486;BME280;53303;47.476;8.084;2023-07-13T05:48:50;95516.56;;;24.32;50.92
66486;BME280;53303;47.476;8.084;2023-07-13T05:51:17;95520.53;;;24.23;50.70
66486;BME280;53303;47.476;8.084;2023-07-13T05:53:46;95528.25;;;24.30;50.02
66486;BME280;53303;47.476;8.084;2023-07-13T05:56:13;95529.09;;;24.25;49.53
66486;BME280;53303;47.476;8.084;2023-07-13T05:58:42;95510.84;;;24.11;49.48
66486;BME280;53303;47.476;8.084;2023-07-13T06:01:15;95532.41;;;24.24;49.78
66486;BME280;53303;47.476;8.084;2023-07-13T06:03:41;95519.44;;;24.13;49.52
66486;BME280;53303;47.476;8.084;2023-07-13T06:06:08;95548.63;;;24.25;49.29
66486;BME280;53303;47.476;8.084;2023-07-13T06:08:34;95512.44;;;24.06;49.13
66486;BME280;53303;47.476;8.084;2023-07-13T06:11:25;95538.78;;;24.24;48.85
66486;BME280;53303;47.476;8.084;2023-07-13T06:13:51;95522.88;;;24.19;49.17
66486;BME280;53303;47.476;8.084;2023-07-13T06:16:17;95528.16;;;24.23;49.08
66486;BME280;53303;47.476;8.084;2023-07-13T06:18:45;95530.47;;;24.19;48.97
66486;BME280;53303;47.476;8.084;2023-07-13T06:21:19;95536.38;;;24.15;48.69
66486;BME280;53303;47.476;8.084;2023-07-13T06:23:48;95544.66;;;24.21;48.69
66486;BME280;53303;47.476;8.084;2023-07-13T06:26:17;95553.03;;;24.21;49.03
66486;BME280;53303;47.476;8.084;2023-07-13T06:28:45;95539.78;;;24.08;49.83
66486;BME280;53303;47.476;8.084;2023-07-13T06:31:13;95542.78;;;24.10;49.50
66486;BME280;53303;47.476;8.084;2023-07-13T06:33:39;95551.28;;;24.18;48.95
66486;BME280;53303;47.476;8.084;2023-07-13T06:36:06;95545.56;;;24.10;48.59
66486;BME280;53303;47.476;8.084;2023-07-13T06:38:35;95526.38;;;24.06;48.39
66486;BME280;53303;47.476;8.084;2023-07-13T06:41:03;95547.97;;;24.19;48.49
66486;BME280;53303;47.476;8.084;2023-07-13T06:43:31;95544.63;;;24.07;48.58
66486;BME280;53303;47.476;8.084;2023-07-13T06:45:57;95552.44;;;24.09;48.55
66486;BME280;53303;47.476;8.084;2023-07-13T06:48:26;95566.72;;;24.19;48.33
66486;BME280;53303;47.476;8.084;2023-07-13T06:50:54;95564.81;;;24.13;48.16
66486;BME280;53303;47.476;8.084;2023-07-13T06:53:22;95570.38;;;24.13;48.20
66486;BME280;53303;47.476;8.084;2023-07-13T06:55:48;95565.66;;;24.08;48.24
66486;BME280;53303;47.476;8.084;2023-07-13T06:58:16;95583.22;;;24.17;48.77
66486;BME280;53303;47.476;8.084;2023-07-13T07:00:49;95538.34;;;23.88;48.48
66486;BME280;53303;47.476;8.084;2023-07-13T07:03:15;95584.75;;;24.18;48.52
66486;BME280;53303;47.476;8.084;2023-07-13T07:05:45;95568.75;;;24.05;48.02
66486;BME280;53303;47.476;8.084;2023-07-13T07:08:11;95586.78;;;24.17;47.93
66486;BME280;53303;47.476;8.084;2023-07-13T07:10:36;95563.47;;;24.01;47.91
66486;BME280;53303;47.476;8.084;2023-07-13T07:13:06;95574.00;;;24.08;47.61
66486;BME280;53303;47.476;8.084;2023-07-13T07:15:31;95584.38;;;24.08;46.96
66486;BME280;53303;47.476;8.084;2023-07-13T07:17:59;95579.13;;;24.04;46.22
66486;BME280;53303;47.476;8.084;2023-07-13T07:20:24;95573.00;;;24.06;45.78
66486;BME280;53303;47.476;8.084;2023-07-13T07:22:50;95570.84;;;23.99;45.92
66486;BME280;53303;47.476;8.084;2023-07-13T07:25:15;95584.84;;;24.12;46.53
66486;BME280;53303;47.476;8.084;2023-07-13T07:27:43;95551.66;;;23.95;46.04
66486;BME280;53303;47.476;8.084;2023-07-13T07:30:09;95568.97;;;24.07;46.56
66486;BME280;53303;47.476;8.084;2023-07-13T07:32:39;95538.56;;;23.90;46.74
66486;BME280;53303;47.476;8.084;2023-07-13T07:35:05;95565.66;;;24.08;46.31
66486;BME280;53303;47.476;8.084;2023-07-13T07:37:31;95572.69;;;24.09;46.14
66486;BME280;53303;47.476;8.084;2023-07-13T07:39:56;95572.28;;;24.05;46.07
66486;BME280;53303;47.476;8.084;2023-07-13T07:42:22;95580.31;;;24.09;45.86
66486;BME280;53303;47.476;8.084;2023-07-13T07:44:49;95571.75;;;24.07;45.83
66486;BME280;53303;47.476;8.084;2023-07-13T07:47:15;95581.81;;;24.10;45.75
66486;BME280;53303;47.476;8.084;2023-07-13T07:49:43;95573.00;;;24.06;45.43
66486;BME280;53303;47.476;8.084;2023-07-13T07:52:09;95586.34;;;24.13;45.69
66486;BME280;53303;47.476;8.084;2023-07-13T07:54:34;95579.13;;;24.04;44.90
66486;BME280;53303;47.476;8.084;2023-07-13T07:57:02;95582.69;;;24.05;44.73
66486;BME280;53303;47.476;8.084;2023-07-13T07:59:27;95585.91;;;24.09;44.52
66486;BME280;53303;47.476;8.084;2023-07-13T08:01:55;95587.25;;;24.02;45.12
66486;BME280;53303;47.476;8.084;2023-07-13T08:04:20;95591.91;;;24.13;44.56
66486;BME280;53303;47.476;8.084;2023-07-13T08:06:46;95597.47;;;24.13;44.61
66486;BME280;53303;47.476;8.084;2023-07-13T08:09:16;95588.69;;;24.09;44.73
66486;BME280;53303;47.476;8.084;2023-07-13T08:11:41;95601.56;;;24.12;44.63
66486;BME280;53303;47.476;8.084;2023-07-13T08:14:09;95589.53;;;24.04;44.53
66486;BME280;53303;47.476;8.084;2023-07-13T08:16:37;95600.50;;;24.15;44.24
66486;BME280;53303;47.476;8.084;2023-07-13T08:19:05;95601.09;;;24.08;44.37
66486;BME280;53303;47.476;8.084;2023-07-13T08:21:33;95591.34;;;24.01;43.51
66486;BME280;53303;47.476;8.084;2023-07-13T08:24:01;95605.63;;;24.11;42.98
66486;BME280;53303;47.476;8.084;2023-07-13T08:26:29;95594.03;;;24.07;43.16
66486;BME280;53303;47.476;8.084;2023-07-13T08:28:59;95608.09;;;24.14;43.01
66486;BME280;53303;47.476;8.084;2023-07-13T08:31:27;95607.38;;;24.14;42.83
66486;BME280;53303;47.476;8.084;2023-07-13T08:33:54;95598.09;;;24.06;42.76
66486;BME280;53303;47.476;8.084;2023-07-13T08:36:20;95598.53;;;24.10;42.60
66486;BME280;53303;47.476;8.084;2023-07-13T08:38:47;95605.31;;;24.14;43.28
66486;BME280;53303;47.476;8.084;2023-07-13T08:41:15;95603.06;;;24.13;43.41
66486;BME280;53303;47.476;8.084;2023-07-13T08:43:45;95595.22;;;24.11;43.66
66486;BME280;53303;47.476;8.084;2023-07-13T08:46:36;95607.16;;;24.12;43.55
66486;BME280;53303;47.476;8.084;2023-07-13T08:51:55;95603.06;;;24.13;44.31
66486;BME280;53303;47.476;8.084;2023-07-13T08:55:03;95605.22;;;24.20;44.30
66486;BME280;53303;47.476;8.084;2023-07-13T08:57:27;95590.16;;;24.10;44.62
66486;BME280;53303;47.476;8.084;2023-07-13T08:59:55;95586.63;;;24.09;44.82
66486;BME280;53303;47.476;8.084;2023-07-13T09:02:28;95604.38;;;24.25;44.62
66486;BME280;53303;47.476;8.084;2023-07-13T09:05:10;95603.66;;;24.25;44.75
66486;BME280;53303;47.476;8.084;2023-07-13T09:10:45;95594.53;;;24.24;44.88
66486;BME280;53303;47.476;8.084;2023-07-13T09:16:21;95596.25;;;24.27;45.07
66486;BME280;53303;47.476;8.084;2023-07-13T09:18:50;95600.31;;;24.26;45.36
66486;BME280;53303;47.476;8.084;2023-07-13T09:23:42;95598.81;;;24.25;45.63
66486;BME280;53303;47.476;8.084;2023-07-13T09:26:22;95596.88;;;24.20;45.76
66486;BME280;53303;47.476;8.084;2023-07-13T09:28:55;95571.22;;;24.08;45.59
66486;BME280;53303;47.476;8.084;2023-07-13T09:31:34;95592.38;;;24.17;45.89
66486;BME280;53303;47.476;8.084;2023-07-13T09:34:02;95618.38;;;24.39;45.73
66486;BME280;53303;47.476;8.084;2023-07-13T09:36:30;95597.44;;;24.32;45.83
66486;BME280;53303;47.476;8.084;2023-07-13T09:39:14;95598.94;;;24.33;45.94
66486;BME280;53303;47.476;8.084;2023-07-13T09:44:12;95590.91;;;24.43;46.00
66486;BME280;53303;47.476;8.084;2023-07-13T09:46:43;95580.09;;;24.39;46.08
66486;BME280;53303;47.476;8.084;2023-07-13T09:49:10;95582.44;;;24.35;46.53
66486;BME280;53303;47.476;8.084;2023-07-13T09:51:40;95596.19;;;24.46;46.20
66486;BME280;53303;47.476;8.084;2023-07-13T09:54:09;95588.44;;;24.39;46.42
66486;BME280;53303;47.476;8.084;2023-07-13T09:56:47;95592.72;;;24.40;46.35
66486;BME280;53303;47.476;8.084;2023-07-13T09:59:20;95598.22;;;24.46;46.41
66486;BME280;53303;47.476;8.084;2023-07-13T10:01:48;95565.13;;;24.23;46.96
66486;BME280;53303;47.476;8.084;2023-07-13T10:04:20;95590.72;;;24.41;46.71
66486;BME280;53303;47.476;8.084;2023-07-13T10:06:46;95608.53;;;24.51;46.85
66486;BME280;53303;47.476;8.084;2023-07-13T10:09:17;95582.19;;;24.33;46.63
66486;BME280;53303;47.476;8.084;2023-07-13T10:11:50;95609.28;;;24.51;46.78
66486;BME280;53303;47.476;8.084;2023-07-13T10:14:18;95610.03;;;24.52;46.81
66486;BME280;53303;47.476;8.084;2023-07-13T10:16:50;95610.03;;;24.52;47.16
66486;BME280;53303;47.476;8.084;2023-07-13T10:19:24;95601.75;;;24.46;47.08
66486;BME280;53303;47.476;8.084;2023-07-13T10:21:57;95602.50;;;24.47;47.35
66486;BME280;53303;47.476;8.084;2023-07-13T10:24:31;95610.28;;;24.54;47.30
66486;BME280;53303;47.476;8.084;2023-07-13T10:29:52;95595.22;;;24.44;47.54
66486;BME280;53303;47.476;8.084;2023-07-13T10:32:24;95590.72;;;24.41;47.59
66486;BME280;53303;47.476;8.084;2023-07-13T10:34:50;95591.34;;;24.47;47.60
66486;BME280;53303;47.476;8.084;2023-07-13T10:37:24;95599.31;;;24.56;47.41
66486;BME280;53303;47.476;8.084;2023-07-13T10:39:54;95596.94;;;24.47;47.20
66486;BME280;53303;47.476;8.084;2023-07-13T10:42:37;95610.03;;;24.52;47.33
66486;BME280;53303;47.476;8.084;2023-07-13T10:45:23;95609.59;;;24.48;47.59
66486;BME280;53303;47.476;8.084;2023-07-13T10:47:53;95618.31;;;24.58;47.73
66486;BME280;53303;47.476;8.084;2023-07-13T10:50:28;95598.44;;;24.48;48.03
66486;BME280;53303;47.476;8.084;2023-07-13T10:53:01;95593.00;;;24.56;47.62
66486;BME280;53303;47.476;8.084;2023-07-13T10:58:19;95589.75;;;24.51;47.86
66486;BME280;53303;47.476;8.084;2023-07-13T11:00:57;95589.00;;;24.51;48.21
66486;BME280;53303;47.476;8.084;2023-07-13T11:03:27;95606.31;;;24.63;47.89
66486;BME280;53303;47.476;8.084;2023-07-13T11:08:36;95594.63;;;24.64;47.97
66486;BME280;53303;47.476;8.084;2023-07-13T11:24:29;95571.13;;;24.60;48.16
66486;BME280;53303;47.476;8.084;2023-07-13T11:26:59;95578.22;;;24.61;48.22
66486;BME280;53303;47.476;8.084;2023-07-13T11:31:58;95589.69;;;24.70;48.29
66486;BME280;53303;47.476;8.084;2023-07-13T11:34:29;95601.63;;;24.71;48.20
66486;BME280;53303;47.476;8.084;2023-07-13T11:37:00;95586.06;;;24.62;48.21
66486;BME280;53303;47.476;8.084;2023-07-13T11:39:32;95589.69;;;24.70;48.28
66486;BME280;53303;47.476;8.084;2023-07-13T11:42:03;95572.09;;;24.62;48.29
66486;BME280;53303;47.476;8.084;2023-07-13T11:44:33;95563.84;;;24.57;48.29
66486;BME280;53303;47.476;8.084;2023-07-13T11:47:11;95567.38;;;24.57;48.51
66486;BME280;53303;47.476;8.084;2023-07-13T11:49:45;95578.78;;;24.73;48.77
66486;BME280;53303;47.476;8.084;2023-07-13T11:52:18;95571.66;;;24.72;48.49
66486;BME280;53303;47.476;8.084;2023-07-13T11:54:57;95579.50;;;24.73;48.71
66486;BME280;53303;47.476;8.084;2023-07-13T11:57:31;95574.69;;;24.74;48.68
66486;BME280;53303;47.476;8.084;2023-07-13T12:00:03;95563.06;;;24.56;48.78
66486;BME280;53303;47.476;8.084;2023-07-13T12:02:37;95562.84;;;24.54;48.94
66486;BME280;53303;47.476;8.084;2023-07-13T12:05:10;95592.16;;;24.74;48.93
66486;BME280;53303;47.476;8.084;2023-07-13T12:07:38;95560.28;;;24.56;49.07
66486;BME280;53303;47.476;8.084;2023-07-13T12:15:42;95592.94;;;24.75;48.80
66486;BME280;53303;47.476;8.084;2023-07-13T12:18:18;95585.84;;;24.74;49.03
66486;BME280;53303;47.476;8.084;2023-07-13T12:20:45;95587.25;;;24.80;49.15
66486;BME280;53303;47.476;8.084;2023-07-13T12:23:29;95586.28;;;24.78;48.97
66486;BME280;53303;47.476;8.084;2023-07-13T12:25:57;95576.72;;;24.73;49.28
66486;BME280;53303;47.476;8.084;2023-07-13T12:28:33;95594.88;;;24.80;49.16
66486;BME280;53303;47.476;8.084;2023-07-13T12:31:05;95590.78;;;24.81;49.52
66486;BME280;53303;47.476;8.084;2023-07-13T12:33:34;95563.00;;;24.62;49.18
66486;BME280;53303;47.476;8.084;2023-07-13T12:36:05;95568.00;;;24.63;49.19
66486;BME280;53303;47.476;8.084;2023-07-13T12:38:36;95576.81;;;24.67;49.45
66486;BME280;53303;47.476;8.084;2023-07-13T12:41:11;95588.50;;;24.79;49.57
66486;BME280;53303;47.476;8.084;2023-07-13T12:43:39;95591.22;;;24.85;49.23
66486;BME280;53303;47.476;8.084;2023-07-13T12:48:43;95586.59;;;24.87;49.65
66486;BME280;53303;47.476;8.084;2023-07-13T12:51:13;95592.94;;;24.88;49.34
66486;BME280;53303;47.476;8.084;2023-07-13T12:53:49;95561.78;;;24.70;49.61
66486;BME280;53303;47.476;8.084;2023-07-13T12:56:21;95585.84;;;24.87;49.70
66486;BME280;53303;47.476;8.084;2023-07-13T12:58:48;95542.16;;;24.63;49.34
66486;BME280;53303;47.476;8.084;2023-07-13T13:01:21;95581.00;;;24.87;49.68
66486;BME280;53303;47.476;8.084;2023-07-13T13:03:50;95576.94;;;24.88;49.53
66486;BME280;53303;47.476;8.084;2023-07-13T13:08:52;95567.81;;;24.88;49.75
66486;BME280;53303;47.476;8.084;2023-07-13T13:11:21;95525.19;;;24.61;49.49
66486;BME280;53303;47.476;8.084;2023-07-13T13:13:48;95560.28;;;24.83;49.83
66486;BME280;53303;47.476;8.084;2023-07-13T13:19:26;95572.13;;;24.89;49.83
66486;BME280;53303;47.476;8.084;2023-07-13T13:21:49;95562.34;;;24.82;49.69
66486;BME280;53303;47.476;8.084;2023-07-13T13:24:22;95575.44;;;24.87;49.97
66486;BME280;53303;47.476;8.084;2023-07-13T13:26:48;95583.28;;;24.89;49.79
66486;BME280;53303;47.476;8.084;2023-07-13T13:29:20;95577.91;;;24.91;49.86
66486;BME280;53303;47.476;8.084;2023-07-13T13:31:45;95574.91;;;24.89;49.76
66486;BME280;53303;47.476;8.084;2023-07-13T13:34:13;95576.06;;;24.94;49.87
66486;BME280;53303;47.476;8.084;2023-07-13T13:36:40;95558.38;;;24.78;49.89
66486;BME280;53303;47.476;8.084;2023-07-13T13:39:24;95584.22;;;24.92;50.02
66486;BME280;53303;47.476;8.084;2023-07-13T13:41:51;95563.94;;;24.91;49.71
66486;BME280;53303;47.476;8.084;2023-07-13T13:44:21;95585.63;;;24.98;49.94
66486;BME280;53303;47.476;8.084;2023-07-13T13:46:58;95575.22;;;24.85;50.09
66486;BME280;53303;47.476;8.084;2023-07-13T13:49:29;95576.50;;;24.84;50.00
66486;BME280;53303;47.476;8.084;2023-07-13T13:51:58;95603.91;;;24.99;49.72
66486;BME280;53303;47.476;8.084;2023-07-13T13:54:24;95592.72;;;24.99;49.94
66486;BME280;53303;47.476;8.084;2023-07-13T13:56:52;95578.13;;;24.93;49.81
66486;BME280;53303;47.476;8.084;2023-07-13T13:59:26;95574.03;;;24.94;50.12
66486;BME280;53303;47.476;8.084;2023-07-13T14:01:52;95562.34;;;24.82;49.83
66486;BME280;53303;47.476;8.084;2023-07-13T14:04:22;95573.91;;;24.86;49.58
66486;BME280;53303;47.476;8.084;2023-07-13T14:06:48;95586.38;;;24.99;50.09
66486;BME280;53303;47.476;8.084;2023-07-13T14:11:42;95594.00;;;25.12;49.92